Reek, Netherlands
Current Conditions -  °F | °C
As of 3:25 PM on Thursday 27 Nov 2014 (Local Time) from EHVK Reporting Station
Haze Haze  
Wind Chill:   Ceiling: 8100
Heat Index:   Visibility: 4mi
Dew Point:   Wind: 9mph
Humidity: 87%   Direction: 100°E
Pressure: 29.71"   Gusts: NA
Location:  51.75°N, 5.68°E
Report Text: EHVK 271425Z AUTO 10008KT 7000 BR FEW052 SCT072 BKN081 08/06 Q1006 WHT 11010KT 8000 SCT030 BKN060 TEMPO 4000 -DZRA SCT010 BKN020
Loading
Personal Weather Stations






























Interactive Weather Map New forecast layout! Learn more

10-Day Weather Forecast

Advertisements
Track Severe Weather on mobile